Time;durP1;ratioP1;P1;durP2;ratioP2;P2;SDS_P1;SDS_P2;PMS_P1;PMS_P2;Temp;Humidity;BMP_temperature;BMP_pressure;BME280_temperature;BME280_humidity;BME280_pressure;Samples;Min_cycle;Max_cycle;Signal;HPM_P1;HPM_P2
2021/06/08 00:01:17;;;;;;;7.39;3.47;;;;;;;16.65;71.42;98919.66;393072;104;1986067;-72
2021/06/08 00:02:23;;;;;;;7.60;3.89;;;;;;;16.55;71.08;98911.41;372575;105;1964989;-72
2021/06/08 00:03:35;;;;;;;7.20;4.15;;;;;;;16.69;71.25;98912.58;348904;104;2808008;-72
2021/06/08 00:04:41;;;;;;;6.85;3.68;;;;;;;16.60;70.97;98913.36;328233;105;2179969;-71
2021/06/08 00:05:54;;;;;;;7.41;4.31;;;;;;;16.70;71.10;98907.97;384357;106;2073013;-72
2021/06/08 00:07:01;;;;;;;5.58;3.68;;;;;;;16.61;71.04;98912.27;368545;107;1970051;-72
2021/06/08 00:08:25;;;;;;;8.50;4.08;;;;;;;16.63;70.87;98908.19;371007;107;1962026;-71
2021/06/08 00:09:37;;;;;;;7.16;4.13;;;;;;;16.70;71.10;98911.52;375103;104;2863973;-72
2021/06/08 00:10:43;;;;;;;8.03;4.79;;;;;;;16.61;71.06;98913.08;376064;106;1962012;-72
2021/06/08 00:11:49;;;;;;;8.46;4.82;;;;;;;16.62;71.15;98903.02;329461;106;2848091;-72
2021/06/08 00:13:01;;;;;;;9.03;4.01;;;;;;;16.74;71.02;98897.34;394784;104;1963011;-72
2021/06/08 00:14:06;;;;;;;8.21;4.23;;;;;;;16.60;71.04;98900.55;374278;105;1969931;-71
2021/06/08 00:15:18;;;;;;;8.74;4.63;;;;;;;16.73;70.85;98909.34;394439;104;1987973;-71
2021/06/08 00:16:24;;;;;;;10.05;5.18;;;;;;;16.62;70.78;98906.56;375952;107;1961028;-73
2021/06/08 00:17:30;;;;;;;7.83;5.24;;;;;;;16.59;71.00;98903.52;369926;107;1961884;-73
2021/06/08 00:18:43;;;;;;;10.47;5.26;;;;;;;16.66;71.20;98901.39;384775;106;1965044;-73
2021/06/08 00:19:48;;;;;;;9.48;5.68;;;;;;;16.57;70.94;98908.44;368514;109;1963886;-72
2021/06/08 00:20:54;;;;;;;9.82;5.98;;;;;;;16.55;71.03;98897.78;366195;109;1961898;-71
2021/06/08 00:22:06;;;;;;;7.91;5.41;;;;;;;16.66;70.96;98901.39;390763;103;1985995;-72
2021/06/08 00:23:18;;;;;;;9.75;6.26;;;;;;;16.64;71.02;98900.83;385545;104;2072968;-71
2021/06/08 00:24:24;;;;;;;9.89;5.89;;;;;;;16.54;71.04;98896.16;359021;106;1963042;-72
2021/06/08 00:25:30;;;;;;;8.44;5.56;;;;;;;16.51;71.10;98891.20;355335;105;1961925;-72
2021/06/08 00:26:42;;;;;;;9.32;5.80;;;;;;;16.59;71.45;98900.80;394362;104;1961898;-72
2021/06/08 00:27:47;;;;;;;9.54;6.17;;;;;;;16.45;71.45;98900.45;380203;106;1970034;-72
2021/06/08 00:28:59;;;;;;;10.17;6.26;;;;;;;16.55;71.56;98905.15;390058;105;1990985;-72
2021/06/08 00:30:06;;;;;;;10.53;6.83;;;;;;;16.40;71.69;98901.23;367277;109;1961921;-72
2021/06/08 00:31:18;;;;;;;9.69;4.67;;;;;;;16.48;72.07;98905.37;395466;103;1979044;-71
2021/06/08 00:32:23;;;;;;;9.16;5.39;;;;;;;16.32;72.05;98907.17;371544;107;1961961;-71
2021/06/08 00:33:47;;;;;;;9.17;5.38;;;;;;;16.33;71.98;98908.83;336780;108;2633966;-72
2021/06/08 00:34:59;;;;;;;8.81;5.52;;;;;;;16.41;72.12;98910.25;384767;106;1961883;-72
2021/06/08 00:36:05;;;;;;;7.69;5.21;;;;;;;16.30;72.15;98903.91;366057;109;1966072;-72
2021/06/08 00:37:10;;;;;;;11.09;5.41;;;;;;;16.31;72.11;98897.36;358727;110;1962138;-72
2021/06/08 00:38:23;;;;;;;8.83;5.40;;;;;;;16.44;72.52;98904.27;383409;106;1985983;-73
2021/06/08 00:39:28;;;;;;;8.44;5.24;;;;;;;16.35;72.05;98905.83;365524;109;1962073;-72
2021/06/08 00:40:35;;;;;;;6.06;4.67;;;;;;;16.35;72.04;98903.10;326782;109;2882007;-71
2021/06/08 00:41:43;;;;;;;8.71;5.21;;;;;;;16.37;72.08;98896.30;333441;108;2059906;-73
2021/06/08 00:42:56;;;;;;;8.08;5.27;;;;;;;16.41;72.33;98897.44;338215;104;2307908;-72
2021/06/08 00:44:03;;;;;;;9.54;5.09;;;;;;;16.29;72.33;98896.80;354451;107;1962968;-73
2021/06/08 00:45:16;;;;;;;7.68;4.86;;;;;;;16.36;72.29;98891.13;393949;104;1985812;-72
2021/06/08 00:46:22;;;;;;;7.42;4.84;;;;;;;16.25;72.34;98895.70;331996;107;2800993;-73
2021/06/08 00:47:47;;;;;;;9.13;5.40;;;;;;;16.24;72.39;98897.58;369814;109;1962928;-72
2021/06/08 00:48:59;;;;;;;8.15;5.17;;;;;;;16.33;72.44;98897.11;392108;104;1963012;-72
2021/06/08 00:50:05;;;;;;;8.42;5.57;;;;;;;16.22;72.54;98898.92;376304;107;1969964;-74
2021/06/08 00:51:11;;;;;;;10.18;5.23;;;;;;;16.20;72.54;98896.47;372828;105;1962975;-73
2021/06/08 00:52:16;;;;;;;10.44;5.33;;;;;;;16.20;72.48;98893.75;369447;105;1962000;-73
2021/06/08 00:53:28;;;;;;;9.23;5.06;;;;;;;16.31;72.73;98896.55;385071;106;1987941;-73
2021/06/08 00:54:34;;;;;;;9.53;5.38;;;;;;;16.17;72.75;98901.63;362975;110;1962009;-73
2021/06/08 00:55:39;;;;;;;8.18;5.15;;;;;;;16.15;72.87;98901.07;352570;110;2905047;-72
2021/06/08 00:56:45;;;;;;;7.94;5.00;;;;;;;16.13;72.90;98906.77;360795;111;1966019;-73
2021/06/08 00:57:57;;;;;;;8.07;5.44;;;;;;;16.23;72.98;98909.57;399734;104;1961961;-73
2021/06/08 00:59:03;;;;;;;8.04;5.08;;;;;;;16.11;73.09;98906.20;378596;105;1970100;-74
2021/06/08 01:00:10;;;;;;;8.58;5.16;;;;;;;16.12;73.06;98896.96;381156;105;1963006;-73
2021/06/08 01:01:22;;;;;;;8.02;4.42;;;;;;;16.24;73.05;98897.58;354188;106;2901990;-73
2021/06/08 01:02:28;;;;;;;7.59;4.94;;;;;;;16.15;73.00;98893.70;338498;107;2018012;-73
2021/06/08 01:04:02;;;;;;;7.69;4.59;;;;;;;16.29;72.89;98896.80;417279;99;1986075;-73
2021/06/08 01:05:15;;;;;;;10.50;4.76;;;;;;;16.31;72.83;98902.81;389719;105;1985889;-72
2021/06/08 01:06:39;;;;;;;7.02;4.49;;;;;;;16.20;72.82;98904.65;371205;109;1962033;-72
2021/06/08 01:07:51;;;;;;;6.36;4.51;;;;;;;16.33;72.74;98908.02;397635;104;1964927;-73
2021/06/08 01:08:57;;;;;;;6.68;4.54;;;;;;;16.19;72.64;98908.44;376880;107;1961995;-73
2021/06/08 01:10:20;;;;;;;6.94;4.52;;;;;;;16.15;72.84;98911.97;367323;107;2925765;-74
2021/06/08 01:11:27;;;;;;;7.36;4.84;;;;;;;16.14;72.82;98908.42;330767;107;2763034;-73
2021/06/08 01:12:32;;;;;;;6.77;4.33;;;;;;;16.16;72.69;98908.97;359818;106;1961981;-74
2021/06/08 01:13:45;;;;;;;8.11;4.62;;;;;;;16.24;72.89;98907.66;387880;106;1965979;-74
2021/06/08 01:14:50;;;;;;;7.84;4.53;;;;;;;16.08;73.28;98904.00;365927;108;1962962;-74
2021/06/08 01:16:03;;;;;;;8.03;5.01;;;;;;;16.23;73.08;98898.67;342197;106;2114969;-74
2021/06/08 01:17:09;;;;;;;7.81;4.44;;;;;;;16.14;72.87;98913.03;364403;108;1962024;-74
2021/06/08 01:18:33;;;;;;;8.57;4.41;;;;;;;16.10;73.03;98910.02;358569;110;1965077;-74
2021/06/08 01:19:46;;;;;;;8.44;4.42;;;;;;;16.18;73.28;98905.99;381736;106;2076049;-74
2021/06/08 01:21:07;;;;;;;6.76;4.30;;;;;;;16.16;73.37;98908.97;397165;104;1985959;-74
2021/06/08 01:22:31;;;;;;;;;;;;;;;15.98;73.30;98909.36;378106;105;1960898;-74
2021/06/08 01:23:37;;;;;;;7.22;4.40;;;;;;;15.93;73.66;98915.61;363019;107;1961013;-74
2021/06/08 01:24:46;;;;;;;6.01;4.26;;;;;;;15.91;73.60;98912.31;369004;109;1961929;-74
2021/06/08 01:25:52;;;;;;;7.11;4.73;;;;;;;15.91;74.01;98911.50;328166;109;2577985;-74
2021/06/08 01:26:57;;;;;;;7.74;4.74;;;;;;;15.87;74.17;98918.53;341925;111;1961974;-73
2021/06/08 01:28:10;;;;;;;8.33;4.58;;;;;;;15.96;74.16;98917.81;392717;104;2071875;-74
2021/06/08 01:29:18;;;;;;;7.57;4.95;;;;;;;15.88;74.14;98915.56;374987;107;1962978;-74
2021/06/08 01:30:28;;;;;;;6.28;4.16;;;;;;;15.86;74.15;98920.44;355587;107;1965978;-73
2021/06/08 01:31:41;;;;;;;8.71;4.51;;;;;;;15.97;74.16;98924.89;396907;104;1986055;-73
2021/06/08 01:32:47;;;;;;;7.28;3.84;;;;;;;15.89;74.00;98919.92;368860;108;1961855;-72
2021/06/08 01:34:00;;;;;;;8.10;4.70;;;;;;;15.99;74.18;98913.75;363268;101;2640976;-72
2021/06/08 01:35:06;;;;;;;5.96;4.26;;;;;;;15.89;74.03;98925.36;347056;105;2068020;-73
2021/06/08 01:36:34;;;;;;;6.51;4.42;;;;;;;15.82;74.62;98930.20;349650;105;2021037;-74
2021/06/08 01:37:41;;;;;;;7.07;4.07;;;;;;;15.81;74.33;98923.11;373042;105;2924954;-74
2021/06/08 01:38:53;;;;;;;7.34;3.96;;;;;;;15.92;74.71;98922.12;388819;106;1964950;-74
2021/06/08 01:40:00;;;;;;;6.88;4.05;;;;;;;15.80;74.33;98922.30;372155;107;1970055;-75
2021/06/08 01:41:23;;;;;;;6.08;4.28;;;;;;;15.93;74.24;98923.78;355748;104;2147995;-74
2021/06/08 01:42:29;;;;;;;;;;;;;;;15.84;74.11;98930.77;374368;107;1962067;-74
2021/06/08 01:43:34;;;;;;;6.30;3.89;;;;;;;15.85;74.57;98934.30;369253;107;1960988;-72
2021/06/08 01:45:07;;;;;;;8.03;4.39;;;;;;;15.95;74.56;98927.05;387312;105;1986012;-73
2021/06/08 01:46:15;;;;;;;7.39;4.24;;;;;;;15.88;74.11;98933.78;368461;108;1962290;-73
2021/06/08 01:47:28;;;;;;;7.38;4.12;;;;;;;16.00;74.21;98939.89;380721;106;1987058;-74
2021/06/08 01:48:34;;;;;;;6.57;3.76;;;;;;;15.90;74.02;98934.35;358084;111;1961856;-72
2021/06/08 01:49:58;;;;;;;7.32;4.38;;;;;;;15.92;73.95;98934.92;361979;109;1962043;-74
2021/06/08 01:51:20;;;;;;;6.43;3.73;;;;;;;16.00;74.24;98937.17;368251;101;2871087;-73
2021/06/08 01:52:39;;;;;;;7.56;4.60;;;;;;;15.90;74.17;98931.63;323085;105;2262980;-73
2021/06/08 01:54:21;;;;;;;6.59;3.93;;;;;;;16.01;74.34;98939.65;324821;104;2426042;-72
2021/06/08 01:55:31;;;;;;;7.46;4.21;;;;;;;15.93;74.08;98939.28;341699;107;2883990;-72
2021/06/08 01:57:08;;;;;;;7.76;4.11;;;;;;;15.93;73.81;98942.84;376031;107;1961923;-73
2021/06/08 01:58:38;;;;;;;7.36;4.45;;;;;;;15.96;74.17;98936.06;393731;104;1987003;-71
2021/06/08 02:00:02;;;;;;;8.27;5.14;;;;;;;15.84;74.24;98938.94;319277;107;2265063;-73
2021/06/08 02:01:24;;;;;;;7.26;4.38;;;;;;;15.96;74.37;98938.78;383639;106;1986085;-73
2021/06/08 02:03:07;;;;;;;6.63;4.41;;;;;;;15.97;74.69;98941.23;386253;106;1986020;-71
2021/06/08 02:04:55;;;;;;;7.43;4.44;;;;;;;15.94;74.08;98940.94;320401;109;2180038;-71
2021/06/08 02:06:32;;;;;;;8.99;4.87;;;;;;;16.06;74.10;98938.84;389866;106;1985934;-72
2021/06/08 02:08:00;;;;;;;7.02;4.60;;;;;;;15.96;73.98;98944.23;363182;109;1962033;-72
2021/06/08 02:09:26;;;;;;;7.34;4.62;;;;;;;16.09;73.87;98937.51;353198;101;2240000;-71
2021/06/08 02:10:35;;;;;;;6.76;4.33;;;;;;;15.98;73.83;98936.60;380466;105;1961977;-73
2021/06/08 02:12:08;;;;;;;8.22;5.45;;;;;;;16.13;73.57;98934.02;333245;103;2358987;-73
2021/06/08 02:13:24;;;;;;;6.38;4.12;;;;;;;16.04;73.54;98933.67;371813;106;1962006;-73
2021/06/08 02:14:54;;;;;;;7.74;4.98;;;;;;;16.15;73.44;98933.77;385095;106;1985788;-72
2021/06/08 02:16:22;;;;;;;7.43;4.58;;;;;;;16.15;73.53;98931.04;396399;104;1984711;-73
2021/06/08 02:17:49;;;;;;;8.03;5.73;;;;;;;16.05;73.28;98934.49;328210;112;2043941;-72
2021/06/08 02:19:24;;;;;;;11.72;5.48;;;;;;;16.10;73.66;98933.72;372097;105;1987062;-73
2021/06/08 02:20:34;;;;;;;6.94;4.57;;;;;;;16.01;73.41;98931.48;361261;108;2880954;-73
2021/06/08 02:22:05;;;;;;;8.92;4.98;;;;;;;16.00;73.42;98932.53;365425;109;1963028;-73
2021/06/08 02:23:14;;;;;;;8.09;4.85;;;;;;;16.01;73.53;98934.20;362415;110;1962895;-73
2021/06/08 02:24:30;;;;;;;9.64;5.78;;;;;;;16.10;73.59;98937.27;358477;104;2891944;-73
2021/06/08 02:25:36;;;;;;;9.94;5.93;;;;;;;15.96;73.70;98936.88;373117;107;1962013;-72
2021/06/08 02:26:43;;;;;;;7.93;4.93;;;;;;;15.85;73.88;98937.88;375683;106;1962052;-72
2021/06/08 02:27:57;;;;;;;7.93;5.08;;;;;;;15.96;73.91;98939.60;395052;104;1965052;-72
2021/06/08 02:29:04;;;;;;;8.62;5.28;;;;;;;15.81;74.14;98940.27;374572;107;1961990;-72
2021/06/08 02:30:11;;;;;;;6.25;4.67;;;;;;;15.79;74.18;98945.15;309983;106;2436942;-73
2021/06/08 02:31:18;;;;;;;9.82;5.20;;;;;;;15.82;73.97;98944.66;374764;107;1964902;-73
2021/06/08 02:32:26;;;;;;;7.94;5.12;;;;;;;15.82;74.14;98944.66;364239;108;1962048;-73
2021/06/08 02:33:40;;;;;;;9.01;5.53;;;;;;;15.93;74.00;98939.28;386725;106;1986909;-73
2021/06/08 02:34:47;;;;;;;8.21;5.46;;;;;;;15.86;73.81;98952.31;328407;108;2689049;-73
2021/06/08 02:35:54;;;;;;;10.16;6.21;;;;;;;15.86;74.07;98942.23;364257;111;1961744;-74
2021/06/08 02:37:00;;;;;;;11.59;6.47;;;;;;;15.77;74.18;98941.03;363812;110;1962038;-71
2021/06/08 02:38:14;;;;;;;9.69;6.75;;;;;;;15.84;74.62;98933.48;358491;104;2567966;-72
2021/06/08 02:39:22;;;;;;;9.87;6.28;;;;;;;15.74;74.50;98933.39;376274;105;1961973;-75
2021/06/08 02:40:34;;;;;;;10.02;7.00;;;;;;;15.83;74.53;98938.12;397054;104;1986034;-73
2021/06/08 02:41:41;;;;;;;9.19;6.06;;;;;;;15.75;74.46;98938.59;371819;107;1961986;-73
2021/06/08 02:43:05;;;;;;;9.01;5.97;;;;;;;15.74;74.65;98936.92;357382;109;1962914;-73
2021/06/08 02:44:21;;;;;;;9.92;6.46;;;;;;;15.83;74.69;98942.75;358061;104;2630962;-71
2021/06/08 02:45:29;;;;;;;9.57;6.37;;;;;;;15.72;74.67;98941.02;377225;107;1961925;-72
2021/06/08 02:46:37;;;;;;;8.91;5.91;;;;;;;15.73;74.65;98945.37;341628;107;2876973;-72
2021/06/08 02:47:51;;;;;;;9.14;6.62;;;;;;;15.78;75.08;98938.06;337389;106;2893066;-73
2021/06/08 02:48:59;;;;;;;9.22;5.97;;;;;;;15.75;74.95;98948.66;371182;107;1961032;-72
2021/06/08 02:50:08;;;;;;;7.67;5.84;;;;;;;15.79;74.68;98947.87;369880;108;1962025;-72
2021/06/08 02:51:14;;;;;;;9.08;5.98;;;;;;;15.81;74.44;98947.63;370821;107;1961990;-72
2021/06/08 02:52:21;;;;;;;11.42;6.97;;;;;;;15.85;74.26;98946.05;364244;107;1962057;-74
2021/06/08 02:53:29;;;;;;;8.53;6.13;;;;;;;15.87;74.29;98956.66;360277;109;1962999;-74
2021/06/08 02:54:41;;;;;;;10.18;6.95;;;;;;;15.99;74.25;98949.16;393105;103;1986049;-74
2021/06/08 02:55:50;;;;;;;10.91;6.09;;;;;;;15.89;74.19;98959.95;370459;108;1962967;-73
2021/06/08 02:57:03;;;;;;;9.00;6.47;;;;;;;16.00;74.28;98958.97;389417;106;1985894;-74
2021/06/08 02:58:11;;;;;;;10.36;6.13;;;;;;;15.91;74.09;98955.89;353295;110;2888057;-74
2021/06/08 02:59:29;;;;;;;9.39;6.32;;;;;;;16.06;73.96;98947.02;395360;104;1985922;-74
2021/06/08 03:00:34;;;;;;;8.77;6.34;;;;;;;15.94;74.05;98954.56;368048;106;2961837;-73
2021/06/08 03:01:43;;;;;;;19.74;6.61;;;;;;;15.98;73.88;98955.67;377921;105;1970060;-74
2021/06/08 03:03:00;;;;;;;9.03;6.44;;;;;;;16.09;73.92;98957.42;385174;106;1985959;-73
2021/06/08 03:04:10;;;;;;;9.84;6.28;;;;;;;15.99;73.84;98960.88;332604;109;2883122;-74
2021/06/08 03:05:32;;;;;;;11.46;6.98;;;;;;;16.15;73.73;98961.83;329477;104;2382818;-73
2021/06/08 03:06:53;;;;;;;9.91;6.48;;;;;;;16.02;73.78;98954.90;377537;106;1961886;-73
2021/06/08 03:08:27;;;;;;;10.82;6.77;;;;;;;16.21;73.68;98949.87;359822;104;2883971;-73
2021/06/08 03:09:42;;;;;;;10.49;6.45;;;;;;;16.14;73.47;98954.75;372501;106;1961971;-72
2021/06/08 03:11:08;;;;;;;10.60;6.21;;;;;;;16.19;73.35;98954.76;373695;107;1961843;-72
2021/06/08 03:12:18;;;;;;;10.50;6.63;;;;;;;16.23;73.15;98950.45;340243;107;2880016;-74
2021/06/08 03:13:32;;;;;;;9.79;5.86;;;;;;;16.39;73.01;98956.84;388708;104;1987006;-74
2021/06/08 03:14:40;;;;;;;9.54;6.19;;;;;;;16.28;73.02;98954.31;376314;106;1961991;-72
2021/06/08 03:15:49;;;;;;;10.17;6.33;;;;;;;16.31;72.97;98954.59;346082;106;1993905;-73
2021/06/08 03:17:04;;;;;;;9.90;6.27;;;;;;;16.44;72.89;98958.78;385131;104;1986851;-73
2021/06/08 03:18:13;;;;;;;10.09;6.52;;;;;;;16.37;72.81;98958.17;369575;107;1963010;-73
2021/06/08 03:19:30;;;;;;;9.46;6.38;;;;;;;16.53;72.68;98951.75;385753;106;1986928;-73
2021/06/08 03:20:39;;;;;;;10.48;6.97;;;;;;;16.44;72.66;98954.15;366946;109;1961970;-73
2021/06/08 03:22:08;;;;;;;9.06;6.61;;;;;;;16.48;72.57;98952.56;354418;109;2923038;-73
2021/06/08 03:23:24;;;;;;;10.31;6.61;;;;;;;16.65;72.27;98948.84;393759;104;1985957;-73
2021/06/08 03:24:33;;;;;;;9.65;6.25;;;;;;;16.56;72.21;98953.95;375192;107;1960843;-73
2021/06/08 03:25:40;;;;;;;10.75;6.59;;;;;;;16.60;72.17;98965.98;368020;105;2847920;-74
2021/06/08 03:26:55;;;;;;;9.28;6.51;;;;;;;16.75;71.98;98957.09;388876;106;1985024;-72
2021/06/08 03:28:01;;;;;;;9.73;7.40;;;;;;;16.67;71.85;98968.46;323106;109;2134017;-74
2021/06/08 03:29:16;;;;;;;8.84;6.63;;;;;;;16.78;71.82;98962.05;397224;104;1972948;-72
2021/06/08 03:30:23;;;;;;;9.43;6.08;;;;;;;16.70;71.82;98967.97;379801;105;1961850;-73
2021/06/08 03:31:47;;;;;;;12.73;7.12;;;;;;;16.73;71.82;98966.62;344204;105;2067051;-74
2021/06/08 03:32:59;;;;;;;11.12;7.56;;;;;;;16.85;71.74;98964.52;380678;107;2081006;-74
2021/06/08 03:34:07;;;;;;;9.32;6.41;;;;;;;16.79;71.73;98962.86;366248;109;1961997;-73
2021/06/08 03:35:14;;;;;;;10.34;7.36;;;;;;;16.80;71.57;98962.58;324068;109;2804095;-73
2021/06/08 03:36:22;;;;;;;10.29;6.77;;;;;;;16.81;71.59;98966.97;368316;109;1962049;-72
2021/06/08 03:37:28;;;;;;;12.15;7.68;;;;;;;16.84;71.47;98966.44;360471;109;2925073;-73
2021/06/08 03:38:43;;;;;;;7.65;5.95;;;;;;;17.00;71.31;98971.98;393711;104;1960932;-74
2021/06/08 03:39:49;;;;;;;9.69;6.68;;;;;;;16.88;71.23;98974.89;373365;107;1969881;-73
2021/06/08 03:40:56;;;;;;;9.65;6.92;;;;;;;16.85;71.34;98967.25;305146;105;2392921;-73
2021/06/08 03:42:09;;;;;;;9.52;6.95;;;;;;;16.97;71.31;98967.05;391267;104;1965066;-73
2021/06/08 03:43:16;;;;;;;11.06;7.02;;;;;;;16.83;71.42;98970.25;368346;107;1968899;-72
2021/06/08 03:44:48;;;;;;;10.26;6.04;;;;;;;16.95;71.59;98971.95;398491;103;1962015;-72
2021/06/08 03:45:53;;;;;;;10.52;7.11;;;;;;;16.87;71.52;98973.27;377637;106;1969984;-73
2021/06/08 03:47:19;;;;;;;10.51;7.10;;;;;;;16.88;71.49;98966.72;327744;106;2551982;-71
2021/06/08 03:48:32;;;;;;;10.39;7.09;;;;;;;17.02;71.49;98972.55;394507;104;1986944;-73
2021/06/08 03:49:39;;;;;;;10.37;7.78;;;;;;;16.95;71.45;98964.58;331964;107;2893051;-72
2021/06/08 03:50:45;;;;;;;11.88;7.34;;;;;;;17.04;71.16;98967.61;367545;107;1961966;-74
2021/06/08 03:51:59;;;;;;;12.41;7.14;;;;;;;17.16;71.14;98962.77;386594;106;1965093;-73
2021/06/08 03:53:05;;;;;;;10.81;6.52;;;;;;;17.11;70.82;98970.94;307814;109;2297071;-72
2021/06/08 03:54:11;;;;;;;11.18;7.17;;;;;;;17.13;70.71;98969.58;321295;110;2164053;-73
2021/06/08 03:55:25;;;;;;;10.62;6.94;;;;;;;17.27;70.67;98978.09;392997;104;1986072;-73
2021/06/08 03:56:33;;;;;;;11.49;6.91;;;;;;;17.17;70.65;98969.05;346598;107;2017983;-73
2021/06/08 03:57:49;;;;;;;10.62;6.67;;;;;;;17.28;70.56;98967.99;396735;104;1986060;-72
2021/06/08 03:58:57;;;;;;;9.92;6.94;;;;;;;17.15;70.57;98972.06;379737;105;1962011;-74
2021/06/08 04:00:24;;;;;;;9.17;6.86;;;;;;;17.28;70.26;98974.30;379648;105;1961995;-73
2021/06/08 04:01:32;;;;;;;8.95;6.61;;;;;;;17.30;70.15;98977.56;380029;105;1961905;-74
2021/06/08 04:02:45;;;;;;;10.84;7.21;;;;;;;17.46;70.06;98966.70;385216;104;1986865;-74
2021/06/08 04:03:52;;;;;;;10.05;6.59;;;;;;;17.36;70.13;98976.52;377253;107;1963065;-72
2021/06/08 04:04:57;;;;;;;10.24;6.65;;;;;;;17.42;70.04;98976.53;377031;106;1962015;-72
2021/06/08 04:06:10;;;;;;;12.51;7.45;;;;;;;17.58;69.73;98970.84;330684;103;2372970;-74
2021/06/08 04:07:18;;;;;;;11.40;7.26;;;;;;;17.49;69.79;98974.35;350236;105;1964037;-73
2021/06/08 04:08:31;;;;;;;13.41;7.44;;;;;;;17.61;69.73;98972.22;352016;104;2094008;-75
2021/06/08 04:09:49;;;;;;;11.25;7.74;;;;;;;17.59;69.79;98977.94;395868;104;2003031;-73
2021/06/08 04:11:15;;;;;;;11.65;7.93;;;;;;;17.46;69.79;98986.63;374536;107;1962987;-73
2021/06/08 04:12:21;;;;;;;11.53;7.92;;;;;;;17.44;69.74;98985.25;333979;107;2706858;-74
2021/06/08 04:13:33;;;;;;;14.49;9.07;;;;;;;17.49;70.10;98972.47;386156;106;1964904;-73
2021/06/08 04:14:41;;;;;;;11.48;8.73;;;;;;;17.32;70.10;98983.58;366242;109;1963079;-74
2021/06/08 04:15:57;;;;;;;10.06;7.62;;;;;;;17.35;70.42;98974.85;325855;108;2470060;-73
2021/06/08 04:17:05;;;;;;;10.54;7.76;;;;;;;17.32;70.28;98980.85;361028;109;1962027;-72
2021/06/08 04:18:20;;;;;;;10.86;7.57;;;;;;;17.48;70.41;98973.53;353391;104;2655005;-74
2021/06/08 04:19:26;;;;;;;9.54;6.99;;;;;;;17.44;70.24;98986.10;376459;106;1961901;-70
2021/06/08 04:20:31;;;;;;;11.36;7.08;;;;;;;17.54;70.08;98977.95;374597;106;1961911;-73
2021/06/08 04:21:37;;;;;;;10.96;6.82;;;;;;;17.64;69.87;98981.78;376046;106;1961972;-72
2021/06/08 04:22:54;;;;;;;11.48;7.47;;;;;;;17.87;69.51;98980.51;323522;104;2430038;-74
2021/06/08 04:24:07;;;;;;;10.27;6.73;;;;;;;17.98;69.32;98979.42;393417;103;1986997;-73
2021/06/08 04:25:30;;;;;;;13.11;8.46;;;;;;;17.95;68.98;98982.70;345222;106;2483806;-73
2021/06/08 04:26:37;;;;;;;11.87;8.07;;;;;;;18.03;68.58;98984.90;375304;107;1962002;-73
2021/06/08 04:27:43;;;;;;;11.32;8.36;;;;;;;18.05;68.53;98985.45;367503;109;1962011;-73
2021/06/08 04:28:57;;;;;;;11.61;8.73;;;;;;;18.13;68.48;98979.45;351135;103;2889953;-73
2021/06/08 04:30:05;;;;;;;12.76;8.77;;;;;;;17.99;68.57;98994.72;377728;105;1961979;-71
2021/06/08 04:31:17;;;;;;;14.25;8.42;;;;;;;18.06;68.52;98984.35;397326;101;1985883;-72
2021/06/08 04:32:24;;;;;;;12.98;9.46;;;;;;;17.93;68.43;98988.42;378559;105;1963801;-71
2021/06/08 04:33:49;;;;;;;18.03;9.85;;;;;;;17.91;68.46;98987.05;379328;105;1962046;-72
2021/06/08 04:34:56;;;;;;;13.63;9.96;;;;;;;17.89;68.41;98987.34;377477;106;1961964;-73
2021/06/08 04:36:28;;;;;;;13.10;9.08;;;;;;;17.91;68.72;98981.59;388226;101;1964966;-72
2021/06/08 04:37:35;;;;;;;15.05;10.14;;;;;;;17.79;68.69;98985.41;380476;104;1964074;-74
2021/06/08 04:38:48;;;;;;;14.80;9.70;;;;;;;17.92;68.80;98980.52;384937;103;2886043;-74
2021/06/08 04:39:53;;;;;;;15.03;10.75;;;;;;;17.82;68.63;98985.95;346776;106;1961941;-73
2021/06/08 04:41:19;;;;;;;15.03;9.36;;;;;;;17.83;68.42;98980.20;375262;107;1961998;-73
2021/06/08 04:42:24;;;;;;;14.51;10.18;;;;;;;17.85;68.58;98985.41;371958;106;1962909;-73
2021/06/08 04:43:36;;;;;;;13.65;9.99;;;;;;;17.97;68.73;98986.00;389998;106;1985975;-73
2021/06/08 04:44:46;;;;;;;11.99;9.86;;;;;;;17.88;68.74;98985.69;373306;107;1962979;-73
2021/06/08 04:46:18;;;;;;;12.91;10.29;;;;;;;18.03;68.95;98982.16;371585;108;2941976;-73
2021/06/08 04:47:28;;;;;;;15.22;10.17;;;;;;;17.94;68.78;98987.36;335672;110;2424086;-73
2021/06/08 04:48:51;;;;;;;15.19;9.45;;;;;;;18.01;68.62;98984.34;358352;111;1963051;-73
2021/06/08 04:50:07;;;;;;;13.28;8.63;;;;;;;18.23;68.36;98979.45;353062;104;2691034;-72
2021/06/08 04:51:13;;;;;;;15.79;9.23;;;;;;;18.19;68.03;98983.00;372445;107;1962042;-74
2021/06/08 04:52:25;;;;;;;14.30;10.57;;;;;;;18.37;67.77;98978.91;376004;103;2071894;-73
2021/06/08 04:53:30;;;;;;;12.51;9.56;;;;;;;18.27;67.70;98984.38;365544;105;1964057;-72
2021/06/08 04:54:54;;;;;;;13.59;9.78;;;;;;;18.27;67.83;98981.64;381590;105;1962072;-73
2021/06/08 04:56:07;;;;;;;11.69;9.87;;;;;;;18.46;67.58;98980.80;394892;104;1986024;-73
2021/06/08 04:57:15;;;;;;;14.12;9.11;;;;;;;18.43;67.33;98978.62;373396;107;1964085;-74
2021/06/08 04:58:22;;;;;;;14.58;9.62;;;;;;;18.52;67.29;98980.80;332614;111;1961973;-73
2021/06/08 04:59:53;;;;;;;13.28;10.28;;;;;;;18.74;67.30;98980.52;391819;106;1973925;-72
2021/06/08 05:01:03;;;;;;;13.46;9.42;;;;;;;18.73;66.99;98981.59;375368;107;1961999;-73
2021/06/08 05:02:19;;;;;;;13.06;9.43;;;;;;;18.98;66.37;98978.84;361464;101;2036131;-73
2021/06/08 05:03:34;;;;;;;13.49;9.41;;;;;;;18.96;66.08;98983.77;375574;105;1961903;-73
2021/06/08 05:05:04;;;;;;;11.90;8.62;;;;;;;19.04;65.82;98985.12;375511;106;1961978;-72
2021/06/08 05:06:43;;;;;;;12.92;8.78;;;;;;;19.28;65.37;98980.64;374042;103;2451949;-73
2021/06/08 05:08:30;;;;;;;12.61;9.44;;;;;;;19.33;64.96;98985.29;414015;99;1985936;-73
2021/06/08 05:09:56;;;;;;;11.88;8.04;;;;;;;19.23;64.98;98980.66;393862;103;1961958;-73
2021/06/08 05:11:35;;;;;;;12.90;8.59;;;;;;;19.26;64.78;98993.79;315902;105;2255003;-72
2021/06/08 05:12:49;;;;;;;13.71;8.56;;;;;;;19.41;64.90;98986.63;339891;104;2194971;-73
2021/06/08 05:13:55;;;;;;;13.40;8.43;;;;;;;19.32;64.92;98983.66;375554;106;1963032;-73
2021/06/08 05:15:03;;;;;;;11.32;8.73;;;;;;;19.36;64.86;98981.98;378575;107;1961954;-73
2021/06/08 05:16:09;;;;;;;13.03;8.17;;;;;;;19.41;64.70;98983.89;370099;109;1961979;-73
2021/06/08 05:17:18;;;;;;;11.09;8.52;;;;;;;19.42;64.32;98989.07;369635;109;1963007;-73
2021/06/08 05:18:27;;;;;;;14.12;8.52;;;;;;;19.40;64.41;98988.55;371324;108;1962025;-73
2021/06/08 05:19:40;;;;;;;11.14;6.99;;;;;;;19.52;64.03;98985.48;378192;106;1987016;-73
2021/06/08 05:20:53;;;;;;;19.85;9.01;;;;;;;19.52;64.07;98982.73;376222;109;1985962;-72
2021/06/08 05:22:21;;;;;;;12.19;7.66;;;;;;;19.43;64.38;98987.17;357249;113;1962088;-73
2021/06/08 05:23:35;;;;;;;10.91;6.95;;;;;;;19.65;64.20;98992.27;364025;106;1986040;-73
2021/06/08 05:24:41;;;;;;;10.09;6.67;;;;;;;19.60;63.46;98984.07;371231;108;1963970;-73
2021/06/08 05:26:05;;;;;;;9.74;6.28;;;;;;;19.63;63.12;98986.24;350551;107;1962049;-73
2021/06/08 05:27:23;;;;;;;12.24;8.08;;;;;;;19.80;62.77;98983.19;393854;103;1971962;-73
2021/06/08 05:28:29;;;;;;;11.36;7.47;;;;;;;19.74;62.76;98987.84;378587;106;1960894;-73
2021/06/08 05:29:42;;;;;;;13.12;7.58;;;;;;;19.87;62.74;98984.52;392277;104;1960954;-72
2021/06/08 05:30:48;;;;;;;9.29;6.89;;;;;;;19.32;62.58;98915.20;373023;107;1971010;-73
2021/06/08 05:32:13;;;;;;;10.49;6.71;;;;;;;19.82;62.49;98992.77;374990;105;1961888;-73
2021/06/08 05:33:26;;;;;;;10.57;6.38;;;;;;;19.95;62.13;98986.65;372677;101;2551007;-73
2021/06/08 05:34:32;;;;;;;9.52;6.24;;;;;;;19.85;61.80;98992.19;386984;103;1962014;-74
2021/06/08 05:35:46;;;;;;;11.48;5.76;;;;;;;19.97;61.81;99002.80;394284;104;1985997;-74
2021/06/08 05:36:51;;;;;;;8.39;5.05;;;;;;;19.86;60.97;98995.74;344732;107;1964986;-73